sensor_id;sensor_type;location;lat;lon;timestamp;P1;durP1;ratioP1;P2;durP2;ratioP2
55655;SDS011;41530;52.382;5.270;2022-08-01T00:01:59;2.28;;;1.80;;
55655;SDS011;41530;52.382;5.270;2022-08-01T00:04:25;3.15;;;1.60;;
55655;SDS011;41530;52.382;5.270;2022-08-01T00:06:52;1.83;;;1.40;;
55655;SDS011;41530;52.382;5.270;2022-08-01T00:09:18;2.50;;;1.73;;
55655;SDS011;41530;52.382;5.270;2022-08-01T00:11:49;2.13;;;1.42;;
55655;SDS011;41530;52.382;5.270;2022-08-01T00:14:25;1.88;;;1.50;;
55655;SDS011;41530;52.382;5.270;2022-08-01T00:16:58;1.63;;;1.48;;
55655;SDS011;41530;52.382;5.270;2022-08-01T00:19:32;1.20;;;1.10;;
55655;SDS011;41530;52.382;5.270;2022-08-01T00:21:58;1.63;;;1.00;;
55655;SDS011;41530;52.382;5.270;2022-08-01T00:24:25;2.00;;;1.40;;
55655;SDS011;41530;52.382;5.270;2022-08-01T00:26:51;3.53;;;1.45;;
55655;SDS011;41530;52.382;5.270;2022-08-01T00:29:18;1.08;;;0.90;;
55655;SDS011;41530;52.382;5.270;2022-08-01T00:32:05;2.42;;;1.38;;
55655;SDS011;41530;52.382;5.270;2022-08-01T00:34:32;1.58;;;1.20;;
55655;SDS011;41530;52.382;5.270;2022-08-01T00:36:59;1.30;;;1.15;;
55655;SDS011;41530;52.382;5.270;2022-08-01T00:39:26;2.03;;;0.93;;
55655;SDS011;41530;52.382;5.270;2022-08-01T00:41:52;3.30;;;1.10;;
55655;SDS011;41530;52.382;5.270;2022-08-01T00:44:25;4.57;;;1.10;;
55655;SDS011;41530;52.382;5.270;2022-08-01T00:46:52;0.98;;;0.98;;
55655;SDS011;41530;52.382;5.270;2022-08-01T00:49:19;1.75;;;1.10;;
55655;SDS011;41530;52.382;5.270;2022-08-01T00:51:45;1.00;;;0.85;;
55655;SDS011;41530;52.382;5.270;2022-08-01T00:54:12;1.00;;;0.90;;
55655;SDS011;41530;52.382;5.270;2022-08-01T00:56:42;3.17;;;0.90;;
55655;SDS011;41530;52.382;5.270;2022-08-01T00:59:09;0.88;;;0.88;;
55655;SDS011;41530;52.382;5.270;2022-08-01T01:01:39;1.05;;;0.98;;
55655;SDS011;41530;52.382;5.270;2022-08-01T01:04:15;1.58;;;0.82;;
55655;SDS011;41530;52.382;5.270;2022-08-01T01:06:51;1.25;;;0.70;;
55655;SDS011;41530;52.382;5.270;2022-08-01T01:15:15;1.00;;;0.90;;
55655;SDS011;41530;52.382;5.270;2022-08-01T01:20:17;2.33;;;0.98;;
55655;SDS011;41530;52.382;5.270;2022-08-01T01:28:02;3.05;;;0.80;;
55655;SDS011;41530;52.382;5.270;2022-08-01T01:30:44;1.20;;;0.80;;
55655;SDS011;41530;52.382;5.270;2022-08-01T01:33:15;1.65;;;1.02;;
55655;SDS011;41530;52.382;5.270;2022-08-01T01:35:45;1.17;;;1.00;;
55655;SDS011;41530;52.382;5.270;2022-08-01T01:38:17;1.00;;;1.00;;
55655;SDS011;41530;52.382;5.270;2022-08-01T01:40:46;1.25;;;1.00;;
55655;SDS011;41530;52.382;5.270;2022-08-01T01:43:15;4.10;;;1.30;;
55655;SDS011;41530;52.382;5.270;2022-08-01T01:45:44;1.85;;;0.93;;
55655;SDS011;41530;52.382;5.270;2022-08-01T01:48:12;1.42;;;1.33;;
55655;SDS011;41530;52.382;5.270;2022-08-01T01:50:40;1.17;;;1.08;;
55655;SDS011;41530;52.382;5.270;2022-08-01T01:53:09;5.57;;;1.05;;
55655;SDS011;41530;52.382;5.270;2022-08-01T01:55:40;1.55;;;0.80;;
55655;SDS011;41530;52.382;5.270;2022-08-01T01:58:15;1.20;;;0.90;;
55655;SDS011;41530;52.382;5.270;2022-08-01T02:00:43;1.38;;;1.02;;
55655;SDS011;41530;52.382;5.270;2022-08-01T02:03:12;1.25;;;1.13;;
55655;SDS011;41530;52.382;5.270;2022-08-01T02:05:40;3.03;;;1.30;;
55655;SDS011;41530;52.382;5.270;2022-08-01T02:08:08;3.80;;;1.20;;
55655;SDS011;41530;52.382;5.270;2022-08-01T02:10:37;2.00;;;1.20;;
55655;SDS011;41530;52.382;5.270;2022-08-01T02:13:05;1.83;;;1.10;;
55655;SDS011;41530;52.382;5.270;2022-08-01T02:15:33;0.98;;;0.88;;
55655;SDS011;41530;52.382;5.270;2022-08-01T02:18:24;1.65;;;1.20;;
55655;SDS011;41530;52.382;5.270;2022-08-01T02:20:51;3.33;;;1.08;;
55655;SDS011;41530;52.382;5.270;2022-08-01T02:23:20;1.17;;;1.08;;
55655;SDS011;41530;52.382;5.270;2022-08-01T02:25:50;1.92;;;1.20;;
55655;SDS011;41530;52.382;5.270;2022-08-01T02:31:07;2.95;;;0.98;;
55655;SDS011;41530;52.382;5.270;2022-08-01T02:33:41;1.75;;;1.10;;
55655;SDS011;41530;52.382;5.270;2022-08-01T02:36:13;1.92;;;1.40;;
55655;SDS011;41530;52.382;5.270;2022-08-01T02:38:59;4.63;;;1.30;;
55655;SDS011;41530;52.382;5.270;2022-08-01T02:41:29;6.78;;;1.33;;
55655;SDS011;41530;52.382;5.270;2022-08-01T02:43:58;2.30;;;1.20;;
55655;SDS011;41530;52.382;5.270;2022-08-01T02:46:35;3.10;;;1.33;;
55655;SDS011;41530;52.382;5.270;2022-08-01T02:49:02;2.58;;;1.27;;
55655;SDS011;41530;52.382;5.270;2022-08-01T02:51:31;3.35;;;1.38;;
55655;SDS011;41530;52.382;5.270;2022-08-01T02:54:00;2.63;;;1.20;;
55655;SDS011;41530;52.382;5.270;2022-08-01T02:56:29;4.88;;;1.20;;
55655;SDS011;41530;52.382;5.270;2022-08-01T02:59:07;1.15;;;1.00;;
55655;SDS011;41530;52.382;5.270;2022-08-01T03:01:39;2.58;;;1.23;;
55655;SDS011;41530;52.382;5.270;2022-08-01T03:04:09;1.33;;;1.15;;
55655;SDS011;41530;52.382;5.270;2022-08-01T03:06:38;2.58;;;1.02;;
55655;SDS011;41530;52.382;5.270;2022-08-01T03:09:10;2.80;;;1.23;;
55655;SDS011;41530;52.382;5.270;2022-08-01T03:11:39;2.50;;;1.42;;
55655;SDS011;41530;52.382;5.270;2022-08-01T03:14:08;2.10;;;1.25;;
55655;SDS011;41530;52.382;5.270;2022-08-01T03:16:36;2.90;;;1.27;;
55655;SDS011;41530;52.382;5.270;2022-08-01T03:19:06;1.52;;;0.90;;
55655;SDS011;41530;52.382;5.270;2022-08-01T03:21:35;1.70;;;1.00;;
55655;SDS011;41530;52.382;5.270;2022-08-01T03:24:03;0.88;;;0.88;;
55655;SDS011;41530;52.382;5.270;2022-08-01T03:26:33;0.95;;;0.70;;
55655;SDS011;41530;52.382;5.270;2022-08-01T03:29:04;4.07;;;0.80;;
55655;SDS011;41530;52.382;5.270;2022-08-01T03:31:35;1.90;;;0.80;;
55655;SDS011;41530;52.382;5.270;2022-08-01T03:34:04;1.38;;;0.68;;
55655;SDS011;41530;52.382;5.270;2022-08-01T03:36:33;0.85;;;0.70;;
55655;SDS011;41530;52.382;5.270;2022-08-01T03:39:03;1.38;;;0.70;;
55655;SDS011;41530;52.382;5.270;2022-08-01T03:41:37;2.15;;;0.70;;
55655;SDS011;41530;52.382;5.270;2022-08-01T03:44:16;2.22;;;0.95;;
55655;SDS011;41530;52.382;5.270;2022-08-01T03:46:47;2.13;;;0.85;;
55655;SDS011;41530;52.382;5.270;2022-08-01T03:49:18;0.68;;;0.68;;
55655;SDS011;41530;52.382;5.270;2022-08-01T03:51:49;1.65;;;0.85;;
55655;SDS011;41530;52.382;5.270;2022-08-01T03:54:17;0.95;;;0.65;;
55655;SDS011;41530;52.382;5.270;2022-08-01T03:56:48;1.17;;;0.80;;
55655;SDS011;41530;52.382;5.270;2022-08-01T03:59:18;1.02;;;0.70;;
55655;SDS011;41530;52.382;5.270;2022-08-01T04:01:46;1.67;;;0.80;;
55655;SDS011;41530;52.382;5.270;2022-08-01T04:04:14;1.58;;;0.80;;
55655;SDS011;41530;52.382;5.270;2022-08-01T04:06:41;1.35;;;0.70;;
55655;SDS011;41530;52.382;5.270;2022-08-01T04:09:10;2.25;;;0.80;;
55655;SDS011;41530;52.382;5.270;2022-08-01T04:11:39;2.63;;;1.00;;
55655;SDS011;41530;52.382;5.270;2022-08-01T04:14:07;2.45;;;0.90;;
55655;SDS011;41530;52.382;5.270;2022-08-01T04:16:34;1.33;;;0.65;;
55655;SDS011;41530;52.382;5.270;2022-08-01T04:19:01;0.57;;;0.57;;
55655;SDS011;41530;52.382;5.270;2022-08-01T04:21:28;1.75;;;0.80;;
55655;SDS011;41530;52.382;5.270;2022-08-01T04:23:58;2.97;;;0.85;;
55655;SDS011;41530;52.382;5.270;2022-08-01T04:26:29;2.25;;;0.73;;
55655;SDS011;41530;52.382;5.270;2022-08-01T04:28:58;1.48;;;0.77;;
55655;SDS011;41530;52.382;5.270;2022-08-01T04:31:28;0.60;;;0.60;;
55655;SDS011;41530;52.382;5.270;2022-08-01T04:33:57;1.50;;;0.80;;
55655;SDS011;41530;52.382;5.270;2022-08-01T04:36:28;1.60;;;0.80;;
55655;SDS011;41530;52.382;5.270;2022-08-01T04:38:57;1.48;;;0.90;;
55655;SDS011;41530;52.382;5.270;2022-08-01T04:41:26;1.85;;;0.88;;
55655;SDS011;41530;52.382;5.270;2022-08-01T04:43:56;1.38;;;0.90;;
55655;SDS011;41530;52.382;5.270;2022-08-01T04:46:25;1.00;;;0.80;;
55655;SDS011;41530;52.382;5.270;2022-08-01T04:48:54;2.30;;;0.80;;
55655;SDS011;41530;52.382;5.270;2022-08-01T04:51:22;2.05;;;0.82;;
55655;SDS011;41530;52.382;5.270;2022-08-01T04:53:49;2.05;;;0.90;;
55655;SDS011;41530;52.382;5.270;2022-08-01T04:56:18;1.05;;;0.70;;
55655;SDS011;41530;52.382;5.270;2022-08-01T04:58:46;2.55;;;0.75;;
55655;SDS011;41530;52.382;5.270;2022-08-01T05:01:13;3.17;;;0.90;;
55655;SDS011;41530;52.382;5.270;2022-08-01T05:03:40;1.42;;;0.88;;
55655;SDS011;41530;52.382;5.270;2022-08-01T05:06:06;1.27;;;0.52;;
55655;SDS011;41530;52.382;5.270;2022-08-01T05:08:33;3.20;;;0.80;;
55655;SDS011;41530;52.382;5.270;2022-08-01T05:10:59;2.20;;;0.75;;
55655;SDS011;41530;52.382;5.270;2022-08-01T05:13:27;0.90;;;0.70;;
55655;SDS011;41530;52.382;5.270;2022-08-01T05:15:53;1.75;;;0.90;;
55655;SDS011;41530;52.382;5.270;2022-08-01T05:18:20;3.10;;;1.30;;
55655;SDS011;41530;52.382;5.270;2022-08-01T05:20:53;2.78;;;0.80;;
55655;SDS011;41530;52.382;5.270;2022-08-01T05:23:20;6.70;;;1.20;;
55655;SDS011;41530;52.382;5.270;2022-08-01T05:26:06;2.65;;;1.15;;
55655;SDS011;41530;52.382;5.270;2022-08-01T05:28:34;1.63;;;0.90;;
55655;SDS011;41530;52.382;5.270;2022-08-01T05:31:01;1.40;;;0.85;;
55655;SDS011;41530;52.382;5.270;2022-08-01T05:33:28;5.03;;;1.10;;
55655;SDS011;41530;52.382;5.270;2022-08-01T05:35:55;2.67;;;0.88;;
55655;SDS011;41530;52.382;5.270;2022-08-01T05:38:22;2.58;;;1.05;;
55655;SDS011;41530;52.382;5.270;2022-08-01T05:40:48;3.25;;;1.15;;
55655;SDS011;41530;52.382;5.270;2022-08-01T05:43:15;5.70;;;1.33;;
55655;SDS011;41530;52.382;5.270;2022-08-01T05:45:41;5.78;;;1.70;;
55655;SDS011;41530;52.382;5.270;2022-08-01T05:48:08;3.45;;;1.13;;
55655;SDS011;41530;52.382;5.270;2022-08-01T05:50:34;2.70;;;1.33;;
55655;SDS011;41530;52.382;5.270;2022-08-01T05:53:01;2.13;;;1.10;;
55655;SDS011;41530;52.382;5.270;2022-08-01T05:55:28;4.78;;;1.50;;
55655;SDS011;41530;52.382;5.270;2022-08-01T05:57:54;4.10;;;1.38;;
55655;SDS011;41530;52.382;5.270;2022-08-01T06:00:21;7.07;;;1.55;;
55655;SDS011;41530;52.382;5.270;2022-08-01T06:02:48;5.20;;;1.10;;
55655;SDS011;41530;52.382;5.270;2022-08-01T06:05:15;7.13;;;1.25;;
55655;SDS011;41530;52.382;5.270;2022-08-01T06:07:41;7.00;;;1.50;;
55655;SDS011;41530;52.382;5.270;2022-08-01T06:10:08;11.38;;;1.58;;
55655;SDS011;41530;52.382;5.270;2022-08-01T06:12:36;5.43;;;1.48;;
55655;SDS011;41530;52.382;5.270;2022-08-01T06:15:03;8.77;;;1.50;;
55655;SDS011;41530;52.382;5.270;2022-08-01T06:17:31;6.57;;;1.50;;
55655;SDS011;41530;52.382;5.270;2022-08-01T06:19:58;6.50;;;1.23;;
55655;SDS011;41530;52.382;5.270;2022-08-01T06:22:25;8.55;;;1.98;;
55655;SDS011;41530;52.382;5.270;2022-08-01T06:24:53;7.18;;;1.33;;
55655;SDS011;41530;52.382;5.270;2022-08-01T06:27:19;6.53;;;1.80;;
55655;SDS011;41530;52.382;5.270;2022-08-01T06:29:48;7.55;;;1.40;;
55655;SDS011;41530;52.382;5.270;2022-08-01T06:32:19;6.15;;;1.70;;
55655;SDS011;41530;52.382;5.270;2022-08-01T06:34:53;9.25;;;1.83;;
55655;SDS011;41530;52.382;5.270;2022-08-01T06:37:20;6.47;;;1.55;;
55655;SDS011;41530;52.382;5.270;2022-08-01T06:39:47;8.98;;;1.45;;
55655;SDS011;41530;52.382;5.270;2022-08-01T06:42:15;9.18;;;1.70;;
55655;SDS011;41530;52.382;5.270;2022-08-01T06:44:42;5.03;;;1.30;;
55655;SDS011;41530;52.382;5.270;2022-08-01T06:47:09;5.55;;;2.10;;
55655;SDS011;41530;52.382;5.270;2022-08-01T06:49:36;7.15;;;1.45;;
55655;SDS011;41530;52.382;5.270;2022-08-01T06:52:02;8.32;;;1.52;;
55655;SDS011;41530;52.382;5.270;2022-08-01T06:54:30;7.72;;;1.70;;
55655;SDS011;41530;52.382;5.270;2022-08-01T06:56:57;4.93;;;1.33;;
55655;SDS011;41530;52.382;5.270;2022-08-01T06:59:23;9.38;;;1.52;;
55655;SDS011;41530;52.382;5.270;2022-08-01T07:01:50;7.60;;;1.67;;
55655;SDS011;41530;52.382;5.270;2022-08-01T07:04:16;6.57;;;1.20;;
55655;SDS011;41530;52.382;5.270;2022-08-01T07:06:43;6.55;;;1.30;;
55655;SDS011;41530;52.382;5.270;2022-08-01T07:09:09;8.35;;;1.55;;
55655;SDS011;41530;52.382;5.270;2022-08-01T07:11:40;5.97;;;1.48;;
55655;SDS011;41530;52.382;5.270;2022-08-01T07:14:07;4.68;;;1.35;;
55655;SDS011;41530;52.382;5.270;2022-08-01T07:16:34;8.27;;;1.70;;
55655;SDS011;41530;52.382;5.270;2022-08-01T07:19:01;5.43;;;1.55;;
55655;SDS011;41530;52.382;5.270;2022-08-01T07:21:27;5.72;;;1.58;;
55655;SDS011;41530;52.382;5.270;2022-08-01T07:24:07;6.55;;;1.67;;
55655;SDS011;41530;52.382;5.270;2022-08-01T07:26:42;8.70;;;1.40;;
55655;SDS011;41530;52.382;5.270;2022-08-01T07:29:19;7.18;;;1.58;;
55655;SDS011;41530;52.382;5.270;2022-08-01T07:31:47;5.88;;;1.38;;
55655;SDS011;41530;52.382;5.270;2022-08-01T07:34:13;7.60;;;1.70;;
55655;SDS011;41530;52.382;5.270;2022-08-01T07:36:40;17.63;;;2.15;;
55655;SDS011;41530;52.382;5.270;2022-08-01T07:39:06;10.75;;;1.67;;
55655;SDS011;41530;52.382;5.270;2022-08-01T07:41:33;7.97;;;1.55;;
55655;SDS011;41530;52.382;5.270;2022-08-01T07:44:20;6.88;;;1.35;;
55655;SDS011;41530;52.382;5.270;2022-08-01T07:46:47;9.13;;;2.13;;
55655;SDS011;41530;52.382;5.270;2022-08-01T07:49:13;9.57;;;1.60;;
55655;SDS011;41530;52.382;5.270;2022-08-01T07:51:40;8.60;;;1.52;;
55655;SDS011;41530;52.382;5.270;2022-08-01T07:54:06;6.75;;;1.40;;
55655;SDS011;41530;52.382;5.270;2022-08-01T07:56:33;5.47;;;1.42;;
55655;SDS011;41530;52.382;5.270;2022-08-01T07:59:00;8.25;;;1.60;;
55655;SDS011;41530;52.382;5.270;2022-08-01T08:01:26;9.93;;;1.77;;
55655;SDS011;41530;52.382;5.270;2022-08-01T08:03:53;10.43;;;1.67;;
55655;SDS011;41530;52.382;5.270;2022-08-01T08:06:20;10.05;;;1.50;;
55655;SDS011;41530;52.382;5.270;2022-08-01T08:08:47;14.50;;;1.95;;
55655;SDS011;41530;52.382;5.270;2022-08-01T08:11:14;10.10;;;1.38;;
55655;SDS011;41530;52.382;5.270;2022-08-01T08:13:40;5.45;;;1.55;;
55655;SDS011;41530;52.382;5.270;2022-08-01T08:16:07;7.80;;;1.58;;
55655;SDS011;41530;52.382;5.270;2022-08-01T08:18:33;9.95;;;1.55;;
55655;SDS011;41530;52.382;5.270;2022-08-01T08:21:00;9.23;;;1.50;;
55655;SDS011;41530;52.382;5.270;2022-08-01T08:23:31;8.13;;;1.67;;
55655;SDS011;41530;52.382;5.270;2022-08-01T08:26:16;8.27;;;1.15;;
55655;SDS011;41530;52.382;5.270;2022-08-01T08:28:43;6.15;;;1.70;;
55655;SDS011;41530;52.382;5.270;2022-08-01T08:31:09;8.35;;;1.48;;
55655;SDS011;41530;52.382;5.270;2022-08-01T08:33:56;5.78;;;1.60;;
55655;SDS011;41530;52.382;5.270;2022-08-01T08:36:22;7.60;;;1.70;;
55655;SDS011;41530;52.382;5.270;2022-08-01T08:38:57;6.50;;;1.70;;
55655;SDS011;41530;52.382;5.270;2022-08-01T08:41:25;8.43;;;1.58;;
55655;SDS011;41530;52.382;5.270;2022-08-01T08:44:02;10.35;;;1.55;;
55655;SDS011;41530;52.382;5.270;2022-08-01T08:46:40;8.02;;;1.50;;
55655;SDS011;41530;52.382;5.270;2022-08-01T08:49:08;12.20;;;1.70;;
55655;SDS011;41530;52.382;5.270;2022-08-01T08:51:37;8.50;;;1.88;;
55655;SDS011;41530;52.382;5.270;2022-08-01T08:54:05;7.78;;;1.40;;
55655;SDS011;41530;52.382;5.270;2022-08-01T08:56:34;8.07;;;1.65;;
55655;SDS011;41530;52.382;5.270;2022-08-01T08:59:02;6.10;;;1.73;;
55655;SDS011;41530;52.382;5.270;2022-08-01T09:01:30;6.00;;;1.48;;
55655;SDS011;41530;52.382;5.270;2022-08-01T09:03:59;10.50;;;1.40;;
55655;SDS011;41530;52.382;5.270;2022-08-01T09:06:26;9.40;;;1.60;;
55655;SDS011;41530;52.382;5.270;2022-08-01T09:08:54;6.18;;;1.52;;
55655;SDS011;41530;52.382;5.270;2022-08-01T09:11:20;12.00;;;1.80;;
55655;SDS011;41530;52.382;5.270;2022-08-01T09:14:11;12.15;;;1.70;;
55655;SDS011;41530;52.382;5.270;2022-08-01T09:16:35;4.75;;;1.30;;
55655;SDS011;41530;52.382;5.270;2022-08-01T09:19:07;8.40;;;1.50;;
55655;SDS011;41530;52.382;5.270;2022-08-01T09:21:57;5.60;;;1.33;;
55655;SDS011;41530;52.382;5.270;2022-08-01T09:24:26;9.10;;;1.85;;
55655;SDS011;41530;52.382;5.270;2022-08-01T09:26:57;6.30;;;1.55;;
55655;SDS011;41530;52.382;5.270;2022-08-01T09:29:28;6.90;;;1.45;;
55655;SDS011;41530;52.382;5.270;2022-08-01T09:32:04;11.68;;;1.50;;
55655;SDS011;41530;52.382;5.270;2022-08-01T09:34:32;7.47;;;1.42;;
55655;SDS011;41530;52.382;5.270;2022-08-01T09:37:00;6.10;;;1.60;;
55655;SDS011;41530;52.382;5.270;2022-08-01T09:39:31;7.38;;;1.70;;
55655;SDS011;41530;52.382;5.270;2022-08-01T09:42:19;6.30;;;1.40;;
55655;SDS011;41530;52.382;5.270;2022-08-01T09:44:54;7.65;;;1.60;;
55655;SDS011;41530;52.382;5.270;2022-08-01T09:47:21;4.43;;;1.17;;
55655;SDS011;41530;52.382;5.270;2022-08-01T09:49:55;7.63;;;1.63;;
55655;SDS011;41530;52.382;5.270;2022-08-01T09:52:25;6.72;;;1.20;;
55655;SDS011;41530;52.382;5.270;2022-08-01T09:57:22;8.35;;;1.30;;
55655;SDS011;41530;52.382;5.270;2022-08-01T09:59:51;10.18;;;1.40;;
55655;SDS011;41530;52.382;5.270;2022-08-01T10:02:35;3.40;;;0.90;;
55655;SDS011;41530;52.382;5.270;2022-08-01T10:05:04;6.25;;;1.38;;
55655;SDS011;41530;52.382;5.270;2022-08-01T10:07:34;6.47;;;1.48;;
55655;SDS011;41530;52.382;5.270;2022-08-01T10:10:12;8.00;;;1.60;;
55655;SDS011;41530;52.382;5.270;2022-08-01T10:12:41;11.60;;;2.33;;
55655;SDS011;41530;52.382;5.270;2022-08-01T10:15:10;4.95;;;1.10;;
55655;SDS011;41530;52.382;5.270;2022-08-01T10:17:39;10.27;;;1.75;;
55655;SDS011;41530;52.382;5.270;2022-08-01T10:20:17;9.18;;;1.50;;
55655;SDS011;41530;52.382;5.270;2022-08-01T10:22:57;7.43;;;1.30;;
55655;SDS011;41530;52.382;5.270;2022-08-01T10:25:35;6.68;;;1.42;;
55655;SDS011;41530;52.382;5.270;2022-08-01T10:28:15;7.45;;;1.25;;
55655;SDS011;41530;52.382;5.270;2022-08-01T10:30:49;6.13;;;1.35;;
55655;SDS011;41530;52.382;5.270;2022-08-01T10:33:18;4.93;;;1.48;;
55655;SDS011;41530;52.382;5.270;2022-08-01T10:36:08;11.52;;;1.13;;
55655;SDS011;41530;52.382;5.270;2022-08-01T10:38:36;6.75;;;1.45;;
55655;SDS011;41530;52.382;5.270;2022-08-01T10:41:04;7.70;;;1.27;;
55655;SDS011;41530;52.382;5.270;2022-08-01T10:43:34;5.30;;;1.30;;
55655;SDS011;41530;52.382;5.270;2022-08-01T10:46:02;6.88;;;1.15;;
55655;SDS011;41530;52.382;5.270;2022-08-01T10:48:42;7.38;;;1.50;;
55655;SDS011;41530;52.382;5.270;2022-08-01T10:51:34;6.15;;;1.20;;
55655;SDS011;41530;52.382;5.270;2022-08-01T10:54:18;9.95;;;1.30;;
55655;SDS011;41530;52.382;5.270;2022-08-01T10:56:45;8.15;;;1.55;;
55655;SDS011;41530;52.382;5.270;2022-08-01T10:59:15;7.35;;;1.30;;
55655;SDS011;41530;52.382;5.270;2022-08-01T11:02:07;3.42;;;1.00;;
55655;SDS011;41530;52.382;5.270;2022-08-01T11:04:41;4.45;;;1.15;;
55655;SDS011;41530;52.382;5.270;2022-08-01T11:07:16;4.65;;;1.10;;
55655;SDS011;41530;52.382;5.270;2022-08-01T11:09:47;6.25;;;1.00;;
55655;SDS011;41530;52.382;5.270;2022-08-01T11:12:40;5.35;;;1.35;;
55655;SDS011;41530;52.382;5.270;2022-08-01T11:17:39;5.30;;;1.15;;
55655;SDS011;41530;52.382;5.270;2022-08-01T11:20:26;3.38;;;0.95;;
55655;SDS011;41530;52.382;5.270;2022-08-01T11:26:13;4.35;;;1.05;;
55655;SDS011;41530;52.382;5.270;2022-08-01T11:28:31;3.75;;;0.90;;
55655;SDS011;41530;52.382;5.270;2022-08-01T11:33:51;5.85;;;1.20;;
55655;SDS011;41530;52.382;5.270;2022-08-01T11:36:20;3.35;;;0.80;;
55655;SDS011;41530;52.382;5.270;2022-08-01T11:41:39;6.18;;;1.10;;
55655;SDS011;41530;52.382;5.270;2022-08-01T11:44:10;1.85;;;0.88;;
55655;SDS011;41530;52.382;5.270;2022-08-01T11:49:26;4.47;;;1.20;;
55655;SDS011;41530;52.382;5.270;2022-08-01T11:52:02;4.65;;;1.15;;
55655;SDS011;41530;52.382;5.270;2022-08-01T11:57:11;4.13;;;0.95;;
55655;SDS011;41530;52.382;5.270;2022-08-01T11:59:42;5.43;;;0.90;;
55655;SDS011;41530;52.382;5.270;2022-08-01T12:02:32;8.18;;;1.30;;
55655;SDS011;41530;52.382;5.270;2022-08-01T12:05:06;4.15;;;1.00;;
55655;SDS011;41530;52.382;5.270;2022-08-01T12:07:39;5.85;;;1.00;;
55655;SDS011;41530;52.382;5.270;2022-08-01T12:10:08;3.20;;;1.10;;
55655;SDS011;41530;52.382;5.270;2022-08-01T12:12:42;4.80;;;1.00;;
55655;SDS011;41530;52.382;5.270;2022-08-01T12:15:11;4.93;;;1.00;;
55655;SDS011;41530;52.382;5.270;2022-08-01T12:17:38;4.78;;;1.08;;
55655;SDS011;41530;52.382;5.270;2022-08-01T12:20:11;6.18;;;1.13;;
55655;SDS011;41530;52.382;5.270;2022-08-01T12:22:39;2.78;;;0.93;;
55655;SDS011;41530;52.382;5.270;2022-08-01T12:27:44;5.22;;;1.13;;
55655;SDS011;41530;52.382;5.270;2022-08-01T12:30:12;5.93;;;1.08;;
55655;SDS011;41530;52.382;5.270;2022-08-01T12:32:41;7.10;;;1.10;;
55655;SDS011;41530;52.382;5.270;2022-08-01T12:35:20;4.72;;;0.80;;
55655;SDS011;41530;52.382;5.270;2022-08-01T12:37:54;5.95;;;1.00;;
55655;SDS011;41530;52.382;5.270;2022-08-01T12:40:30;5.85;;;1.08;;
55655;SDS011;41530;52.382;5.270;2022-08-01T12:45:28;5.60;;;1.00;;
55655;SDS011;41530;52.382;5.270;2022-08-01T12:48:00;5.65;;;1.10;;
55655;SDS011;41530;52.382;5.270;2022-08-01T12:50:30;4.63;;;1.00;;
55655;SDS011;41530;52.382;5.270;2022-08-01T12:52:59;3.40;;;0.90;;
55655;SDS011;41530;52.382;5.270;2022-08-01T12:55:27;3.65;;;1.10;;
55655;SDS011;41530;52.382;5.270;2022-08-01T12:58:09;5.03;;;1.00;;
55655;SDS011;41530;52.382;5.270;2022-08-01T13:00:42;4.30;;;0.95;;
55655;SDS011;41530;52.382;5.270;2022-08-01T13:03:14;3.13;;;0.90;;
55655;SDS011;41530;52.382;5.270;2022-08-01T13:05:44;2.95;;;0.80;;
55655;SDS011;41530;52.382;5.270;2022-08-01T13:08:17;4.85;;;1.00;;
55655;SDS011;41530;52.382;5.270;2022-08-01T13:10:48;4.15;;;0.93;;
55655;SDS011;41530;52.382;5.270;2022-08-01T13:13:16;5.53;;;1.30;;
55655;SDS011;41530;52.382;5.270;2022-08-01T13:16:02;5.22;;;1.02;;
55655;SDS011;41530;52.382;5.270;2022-08-01T13:18:31;5.45;;;1.02;;
55655;SDS011;41530;52.382;5.270;2022-08-01T13:21:11;5.03;;;1.05;;
55655;SDS011;41530;52.382;5.270;2022-08-01T13:26:39;7.10;;;0.98;;
55655;SDS011;41530;52.382;5.270;2022-08-01T13:29:11;6.47;;;0.90;;
55655;SDS011;41530;52.382;5.270;2022-08-01T13:31:43;5.85;;;1.00;;
55655;SDS011;41530;52.382;5.270;2022-08-01T13:34:10;4.07;;;1.00;;
55655;SDS011;41530;52.382;5.270;2022-08-01T13:36:38;6.70;;;1.10;;
55655;SDS011;41530;52.382;5.270;2022-08-01T13:39:14;5.20;;;1.00;;
55655;SDS011;41530;52.382;5.270;2022-08-01T13:41:59;5.28;;;1.13;;
55655;SDS011;41530;52.382;5.270;2022-08-01T13:44:25;5.78;;;1.05;;
55655;SDS011;41530;52.382;5.270;2022-08-01T13:46:52;6.50;;;1.10;;
55655;SDS011;41530;52.382;5.270;2022-08-01T13:49:19;6.45;;;1.10;;
55655;SDS011;41530;52.382;5.270;2022-08-01T13:51:48;5.40;;;1.10;;
55655;SDS011;41530;52.382;5.270;2022-08-01T13:54:16;2.80;;;0.80;;
55655;SDS011;41530;52.382;5.270;2022-08-01T13:56:43;4.07;;;0.90;;
55655;SDS011;41530;52.382;5.270;2022-08-01T13:59:10;3.97;;;0.90;;
55655;SDS011;41530;52.382;5.270;2022-08-01T14:01:37;8.48;;;1.40;;
55655;SDS011;41530;52.382;5.270;2022-08-01T14:04:04;3.55;;;0.90;;
55655;SDS011;41530;52.382;5.270;2022-08-01T14:06:31;3.47;;;0.90;;
55655;SDS011;41530;52.382;5.270;2022-08-01T14:08:58;6.25;;;1.15;;
55655;SDS011;41530;52.382;5.270;2022-08-01T14:11:26;6.63;;;1.10;;
55655;SDS011;41530;52.382;5.270;2022-08-01T14:14:02;4.45;;;1.13;;
55655;SDS011;41530;52.382;5.270;2022-08-01T14:16:29;3.85;;;0.85;;
55655;SDS011;41530;52.382;5.270;2022-08-01T14:18:56;4.55;;;1.20;;
55655;SDS011;41530;52.382;5.270;2022-08-01T14:21:22;7.47;;;1.10;;
55655;SDS011;41530;52.382;5.270;2022-08-01T14:23:49;5.68;;;1.10;;
55655;SDS011;41530;52.382;5.270;2022-08-01T14:26:15;5.30;;;0.90;;
55655;SDS011;41530;52.382;5.270;2022-08-01T14:28:42;5.93;;;1.02;;
55655;SDS011;41530;52.382;5.270;2022-08-01T14:31:09;5.97;;;0.80;;
55655;SDS011;41530;52.382;5.270;2022-08-01T14:33:35;4.57;;;0.98;;
55655;SDS011;41530;52.382;5.270;2022-08-01T14:36:03;3.55;;;0.90;;
55655;SDS011;41530;52.382;5.270;2022-08-01T14:38:50;3.95;;;0.90;;
55655;SDS011;41530;52.382;5.270;2022-08-01T14:41:17;6.30;;;0.88;;
55655;SDS011;41530;52.382;5.270;2022-08-01T14:43:44;6.57;;;1.08;;
55655;SDS011;41530;52.382;5.270;2022-08-01T14:46:11;6.82;;;0.88;;
55655;SDS011;41530;52.382;5.270;2022-08-01T14:48:38;5.03;;;1.05;;
55655;SDS011;41530;52.382;5.270;2022-08-01T14:51:05;5.40;;;1.20;;
55655;SDS011;41530;52.382;5.270;2022-08-01T14:53:33;3.67;;;0.95;;
55655;SDS011;41530;52.382;5.270;2022-08-01T14:56:03;4.93;;;0.90;;
55655;SDS011;41530;52.382;5.270;2022-08-01T14:58:30;4.22;;;1.00;;
55655;SDS011;41530;52.382;5.270;2022-08-01T15:00:56;3.90;;;1.25;;
55655;SDS011;41530;52.382;5.270;2022-08-01T15:03:24;3.92;;;1.00;;
55655;SDS011;41530;52.382;5.270;2022-08-01T15:05:51;2.65;;;0.90;;
55655;SDS011;41530;52.382;5.270;2022-08-01T15:08:18;3.40;;;0.82;;
55655;SDS011;41530;52.382;5.270;2022-08-01T15:10:45;5.28;;;1.00;;
55655;SDS011;41530;52.382;5.270;2022-08-01T15:13:11;2.90;;;0.80;;
55655;SDS011;41530;52.382;5.270;2022-08-01T15:15:38;2.88;;;0.80;;
55655;SDS011;41530;52.382;5.270;2022-08-01T15:18:04;3.65;;;1.00;;
55655;SDS011;41530;52.382;5.270;2022-08-01T15:20:31;3.83;;;1.08;;
55655;SDS011;41530;52.382;5.270;2022-08-01T15:22:59;3.45;;;0.90;;
55655;SDS011;41530;52.382;5.270;2022-08-01T15:25:25;3.72;;;1.10;;
55655;SDS011;41530;52.382;5.270;2022-08-01T15:28:07;4.63;;;1.10;;
55655;SDS011;41530;52.382;5.270;2022-08-01T15:30:37;2.15;;;0.80;;
55655;SDS011;41530;52.382;5.270;2022-08-01T15:33:04;4.57;;;1.05;;
55655;SDS011;41530;52.382;5.270;2022-08-01T15:35:32;7.75;;;1.00;;
55655;SDS011;41530;52.382;5.270;2022-08-01T15:37:58;6.57;;;1.10;;
55655;SDS011;41530;52.382;5.270;2022-08-01T15:40:25;5.18;;;0.93;;
55655;SDS011;41530;52.382;5.270;2022-08-01T15:42:52;4.32;;;1.05;;
55655;SDS011;41530;52.382;5.270;2022-08-01T15:45:19;4.78;;;0.90;;
55655;SDS011;41530;52.382;5.270;2022-08-01T15:48:07;4.97;;;1.00;;
55655;SDS011;41530;52.382;5.270;2022-08-01T15:50:34;6.57;;;1.02;;